Franklin, Illinois
Current Conditions -  °F | °C
As of 2:35 AM on Monday 26 Jan 2015 (Local Time) from KIJX Reporting Station
Clear Clear  
Wind Chill: 19°   Ceiling: Unl
Heat Index: 26°   Visibility: 10mi
Dew Point: 20°   Wind: 7mph
Humidity: 76%   Direction: 320°NW
Pressure: 30.05"   Gusts: NA
Location:  39.62°N, 90.04°W
Report Text: KIJX 260835Z AUTO 32006KT 10SM CLR M03/M07 A3005 RMK AO2 T10311068
Loading
Personal Weather Stations






























Interactive Weather Map New forecast layout! Learn more

10-Day Weather Forecast

Advertisements
Track Severe Weather on mobile